Mexican Springs, New Mexico
Current Conditions -  °F | °C
As of 1:53 PM on Sunday 23 Nov 2014 (Local Time) from KGUP Reporting Station
Clear Clear  
Wind Chill: 31°   Ceiling: Unl
Heat Index: 41°   Visibility: 10mi
Dew Point:   Wind: 22mph
Humidity: 23%   Direction: 300°WNW
Pressure: 30.01"   Gusts: 30mph
Location:  35.79°N, 108.83°W
Report Text: KGUP 232053Z AUTO 30019G26KT 10SM CLR 05/M15 A3001 RMK AO2 PK WND 29033/1958 SLP140 T00501150 55000
Loading
Personal Weather Stations






























Interactive Weather Map New forecast layout! Learn more

10-Day Weather Forecast

Advertisements
Track Severe Weather on mobile